sensor_id;sensor_type;location;lat;lon;timestamp;pressure;altitude;pressure_sealevel;temperature;humidity
38939;BME280;24211;49.980;19.776;2023-05-12T00:01:59;99474.47;;;12.13;100.00
38939;BME280;24211;49.980;19.776;2023-05-12T00:04:26;99472.97;;;12.05;100.00
38939;BME280;24211;49.980;19.776;2023-05-12T00:06:54;99465.16;;;12.04;100.00
38939;BME280;24211;49.980;19.776;2023-05-12T00:09:23;99473.06;;;11.99;100.00
38939;BME280;24211;49.980;19.776;2023-05-12T00:11:51;99467.72;;;11.99;100.00
38939;BME280;24211;49.980;19.776;2023-05-12T00:14:18;99467.72;;;11.99;100.00
38939;BME280;24211;49.980;19.776;2023-05-12T00:16:46;99477.94;;;12.02;100.00
38939;BME280;24211;49.980;19.776;2023-05-12T00:19:18;99468.88;;;12.03;97.84
38939;BME280;24211;49.980;19.776;2023-05-12T00:21:47;99475.06;;;12.03;95.94
38939;BME280;24211;49.980;19.776;2023-05-12T00:24:14;99473.41;;;12.02;95.10
38939;BME280;24211;49.980;19.776;2023-05-12T00:26:41;99478.44;;;11.99;93.47
38939;BME280;24211;49.980;19.776;2023-05-12T00:29:08;99478.06;;;11.95;93.55
38939;BME280;24211;49.980;19.776;2023-05-12T00:31:35;99479.91;;;11.95;92.14
38939;BME280;24211;49.980;19.776;2023-05-12T00:34:04;99480.59;;;11.90;93.37
38939;BME280;24211;49.980;19.776;2023-05-12T00:36:31;99477.78;;;11.85;91.91
38939;BME280;24211;49.980;19.776;2023-05-12T00:38:58;99483.00;;;11.80;92.91
38939;BME280;24211;49.980;19.776;2023-05-12T00:41:25;99485.94;;;11.78;92.42
38939;BME280;24211;49.980;19.776;2023-05-12T00:43:53;99484.16;;;11.72;93.49
38939;BME280;24211;49.980;19.776;2023-05-12T00:46:20;99481.31;;;11.67;95.00
38939;BME280;24211;49.980;19.776;2023-05-12T00:48:48;99487.13;;;11.64;94.64
38939;BME280;24211;49.980;19.776;2023-05-12T00:51:15;99489.69;;;11.59;94.98
38939;BME280;24211;49.980;19.776;2023-05-12T00:53:43;99490.13;;;11.56;96.68
38939;BME280;24211;49.980;19.776;2023-05-12T00:56:18;99493.94;;;11.49;97.91
38939;BME280;24211;49.980;19.776;2023-05-12T00:58:46;99498.47;;;11.48;98.68
38939;BME280;24211;49.980;19.776;2023-05-12T01:01:15;99493.09;;;11.48;97.02
38939;BME280;24211;49.980;19.776;2023-05-12T01:03:44;99499.72;;;11.46;98.04
38939;BME280;24211;49.980;19.776;2023-05-12T01:06:21;99504.25;;;11.45;93.88
38939;BME280;24211;49.980;19.776;2023-05-12T01:08:52;99499.81;;;11.39;96.53
38939;BME280;24211;49.980;19.776;2023-05-12T01:11:20;99505.63;;;11.36;96.74
38939;BME280;24211;49.980;19.776;2023-05-12T01:13:48;99504.06;;;11.29;98.45
38939;BME280;24211;49.980;19.776;2023-05-12T01:16:22;99502.06;;;11.24;98.75
38939;BME280;24211;49.980;19.776;2023-05-12T01:18:54;99508.53;;;11.16;100.00
38939;BME280;24211;49.980;19.776;2023-05-12T01:21:23;99513.50;;;11.13;100.00
38939;BME280;24211;49.980;19.776;2023-05-12T01:24:00;99504.28;;;11.09;100.00
38939;BME280;24211;49.980;19.776;2023-05-12T01:26:29;99513.97;;;11.10;100.00
38939;BME280;24211;49.980;19.776;2023-05-12T01:29:01;99510.56;;;11.03;100.00
38939;BME280;24211;49.980;19.776;2023-05-12T01:31:30;99515.13;;;10.96;100.00
38939;BME280;24211;49.980;19.776;2023-05-12T01:33:58;99517.22;;;10.94;100.00
38939;BME280;24211;49.980;19.776;2023-05-12T01:36:25;99515.88;;;10.85;100.00
38939;BME280;24211;49.980;19.776;2023-05-12T01:38:54;99523.50;;;10.81;100.00
38939;BME280;24211;49.980;19.776;2023-05-12T01:41:21;99516.22;;;10.70;100.00
38939;BME280;24211;49.980;19.776;2023-05-12T01:43:48;99517.31;;;10.63;100.00
38939;BME280;24211;49.980;19.776;2023-05-12T01:46:17;99513.63;;;10.64;100.00
38939;BME280;24211;49.980;19.776;2023-05-12T01:48:44;99515.25;;;10.65;100.00
38939;BME280;24211;49.980;19.776;2023-05-12T01:51:11;99514.09;;;10.54;100.00
38939;BME280;24211;49.980;19.776;2023-05-12T01:53:38;99512.72;;;10.52;100.00
38939;BME280;24211;49.980;19.776;2023-05-12T01:56:06;99519.09;;;10.50;100.00
38939;BME280;24211;49.980;19.776;2023-05-12T01:58:34;99523.84;;;10.48;100.00
38939;BME280;24211;49.980;19.776;2023-05-12T02:01:03;99520.59;;;10.40;100.00
38939;BME280;24211;49.980;19.776;2023-05-12T02:03:30;99519.94;;;10.44;100.00
38939;BME280;24211;49.980;19.776;2023-05-12T02:05:57;99524.25;;;10.45;100.00
38939;BME280;24211;49.980;19.776;2023-05-12T02:08:24;99518.75;;;10.40;100.00
38939;BME280;24211;49.980;19.776;2023-05-12T02:11:07;99521.84;;;10.37;100.00
38939;BME280;24211;49.980;19.776;2023-05-12T02:13:35;99519.03;;;10.32;100.00
38939;BME280;24211;49.980;19.776;2023-05-12T02:16:03;99524.59;;;10.31;100.00
38939;BME280;24211;49.980;19.776;2023-05-12T02:18:30;99514.56;;;10.26;100.00
38939;BME280;24211;49.980;19.776;2023-05-12T02:20:58;99517.06;;;10.21;100.00
38939;BME280;24211;49.980;19.776;2023-05-12T02:23:25;99518.31;;;10.19;100.00
38939;BME280;24211;49.980;19.776;2023-05-12T02:25:52;99519.56;;;10.16;100.00
38939;BME280;24211;49.980;19.776;2023-05-12T02:28:19;99527.00;;;10.14;100.00
38939;BME280;24211;49.980;19.776;2023-05-12T02:30:49;99522.91;;;10.12;100.00
38939;BME280;24211;49.980;19.776;2023-05-12T02:33:20;99521.03;;;10.12;100.00
38939;BME280;24211;49.980;19.776;2023-05-12T02:35:49;99522.03;;;10.11;100.00
38939;BME280;24211;49.980;19.776;2023-05-12T02:38:17;99516.31;;;10.08;100.00
38939;BME280;24211;49.980;19.776;2023-05-12T02:40:45;99528.22;;;10.05;100.00
38939;BME280;24211;49.980;19.776;2023-05-12T02:43:14;99520.44;;;10.04;100.00
38939;BME280;24211;49.980;19.776;2023-05-12T02:45:42;99530.13;;;9.98;100.00
38939;BME280;24211;49.980;19.776;2023-05-12T02:48:09;99535.28;;;9.93;100.00
38939;BME280;24211;49.980;19.776;2023-05-12T02:50:37;99521.78;;;9.88;100.00
38939;BME280;24211;49.980;19.776;2023-05-12T02:53:04;99528.34;;;9.85;100.00
38939;BME280;24211;49.980;19.776;2023-05-12T02:55:31;99523.06;;;9.79;100.00
38939;BME280;24211;49.980;19.776;2023-05-12T02:57:59;99521.41;;;9.78;100.00
38939;BME280;24211;49.980;19.776;2023-05-12T03:00:27;99527.63;;;9.72;100.00
38939;BME280;24211;49.980;19.776;2023-05-12T03:02:54;99526.59;;;9.73;100.00
38939;BME280;24211;49.980;19.776;2023-05-12T03:05:21;99523.91;;;9.73;100.00
38939;BME280;24211;49.980;19.776;2023-05-12T03:07:49;99525.38;;;9.69;100.00
38939;BME280;24211;49.980;19.776;2023-05-12T03:10:17;99522.97;;;9.61;100.00
38939;BME280;24211;49.980;19.776;2023-05-12T03:12:45;99513.75;;;9.57;100.00
38939;BME280;24211;49.980;19.776;2023-05-12T03:15:13;99528.56;;;9.53;100.00
38939;BME280;24211;49.980;19.776;2023-05-12T03:17:40;99525.09;;;9.46;100.00
38939;BME280;24211;49.980;19.776;2023-05-12T03:20:08;99532.06;;;9.47;100.00
38939;BME280;24211;49.980;19.776;2023-05-12T03:22:36;99525.72;;;9.48;100.00
38939;BME280;24211;49.980;19.776;2023-05-12T03:25:04;99519.97;;;9.51;100.00
38939;BME280;24211;49.980;19.776;2023-05-12T03:27:32;99528.16;;;9.49;100.00
38939;BME280;24211;49.980;19.776;2023-05-12T03:30:00;99522.78;;;9.56;100.00
38939;BME280;24211;49.980;19.776;2023-05-12T03:32:28;99529.34;;;9.60;100.00
38939;BME280;24211;49.980;19.776;2023-05-12T03:34:56;99531.38;;;9.64;100.00
38939;BME280;24211;49.980;19.776;2023-05-12T03:37:23;99528.91;;;9.63;100.00
38939;BME280;24211;49.980;19.776;2023-05-12T03:39:50;99526.84;;;9.65;100.00
38939;BME280;24211;49.980;19.776;2023-05-12T03:42:17;99526.53;;;9.42;100.00
38939;BME280;24211;49.980;19.776;2023-05-12T03:44:45;99533.44;;;9.56;100.00
38939;BME280;24211;49.980;19.776;2023-05-12T03:47:12;99536.75;;;9.58;100.00
38939;BME280;24211;49.980;19.776;2023-05-12T03:49:39;99527.22;;;9.75;100.00
38939;BME280;24211;49.980;19.776;2023-05-12T03:52:06;99528.81;;;9.82;100.00
38939;BME280;24211;49.980;19.776;2023-05-12T03:54:34;99530.41;;;9.90;100.00
38939;BME280;24211;49.980;19.776;2023-05-12T03:57:04;99534.81;;;10.03;100.00
38939;BME280;24211;49.980;19.776;2023-05-12T03:59:34;99536.84;;;10.14;100.00
38939;BME280;24211;49.980;19.776;2023-05-12T04:02:02;99539.84;;;10.24;100.00
38939;BME280;24211;49.980;19.776;2023-05-12T04:04:29;99544.28;;;10.36;100.00
38939;BME280;24211;49.980;19.776;2023-05-12T04:06:58;99549.72;;;10.48;100.00
38939;BME280;24211;49.980;19.776;2023-05-12T04:09:31;99533.78;;;10.60;100.00
38939;BME280;24211;49.980;19.776;2023-05-12T04:11:58;99550.75;;;10.72;100.00
38939;BME280;24211;49.980;19.776;2023-05-12T04:14:27;99553.69;;;10.88;100.00
38939;BME280;24211;49.980;19.776;2023-05-12T04:17:08;99549.59;;;11.04;100.00
38939;BME280;24211;49.980;19.776;2023-05-12T04:19:35;99549.03;;;11.20;100.00
38939;BME280;24211;49.980;19.776;2023-05-12T04:22:02;99542.06;;;11.37;100.00
38939;BME280;24211;49.980;19.776;2023-05-12T04:24:30;99551.31;;;11.53;100.00
38939;BME280;24211;49.980;19.776;2023-05-12T04:26:57;99554.66;;;11.66;100.00
38939;BME280;24211;49.980;19.776;2023-05-12T04:29:24;99552.44;;;11.82;100.00
38939;BME280;24211;49.980;19.776;2023-05-12T04:31:53;99549.91;;;11.98;100.00
38939;BME280;24211;49.980;19.776;2023-05-12T04:34:22;99548.69;;;12.12;100.00
38939;BME280;24211;49.980;19.776;2023-05-12T04:36:49;99554.75;;;12.31;100.00
38939;BME280;24211;49.980;19.776;2023-05-12T04:39:16;99550.50;;;12.53;100.00
38939;BME280;24211;49.980;19.776;2023-05-12T04:41:43;99555.19;;;12.69;100.00
38939;BME280;24211;49.980;19.776;2023-05-12T04:44:11;99554.47;;;12.85;100.00
38939;BME280;24211;49.980;19.776;2023-05-12T04:46:39;99554.94;;;13.05;100.00
38939;BME280;24211;49.980;19.776;2023-05-12T04:49:06;99556.09;;;13.33;100.00
38939;BME280;24211;49.980;19.776;2023-05-12T04:51:33;99550.69;;;13.56;100.00
38939;BME280;24211;49.980;19.776;2023-05-12T04:54:00;99554.47;;;13.71;100.00
38939;BME280;24211;49.980;19.776;2023-05-12T04:56:28;99553.84;;;13.81;100.00
38939;BME280;24211;49.980;19.776;2023-05-12T04:58:55;99559.63;;;14.01;100.00
38939;BME280;24211;49.980;19.776;2023-05-12T05:01:22;99560.47;;;14.18;100.00
38939;BME280;24211;49.980;19.776;2023-05-12T05:03:50;99550.59;;;14.35;100.00
38939;BME280;24211;49.980;19.776;2023-05-12T05:06:18;99552.41;;;14.47;97.57
38939;BME280;24211;49.980;19.776;2023-05-12T05:08:47;99560.19;;;14.65;95.38
38939;BME280;24211;49.980;19.776;2023-05-12T05:11:14;99561.84;;;14.82;93.99
38939;BME280;24211;49.980;19.776;2023-05-12T05:13:42;99563.28;;;14.90;91.59
38939;BME280;24211;49.980;19.776;2023-05-12T05:16:10;99567.19;;;14.99;92.81
38939;BME280;24211;49.980;19.776;2023-05-12T05:18:38;99567.97;;;15.16;90.46
38939;BME280;24211;49.980;19.776;2023-05-12T05:21:08;99567.75;;;15.39;87.35
38939;BME280;24211;49.980;19.776;2023-05-12T05:23:35;99564.69;;;15.47;86.57
38939;BME280;24211;49.980;19.776;2023-05-12T05:26:03;99566.53;;;15.68;83.77
38939;BME280;24211;49.980;19.776;2023-05-12T05:28:30;99562.50;;;15.93;79.86
38939;BME280;24211;49.980;19.776;2023-05-12T05:30:59;99564.34;;;16.14;76.67
38939;BME280;24211;49.980;19.776;2023-05-12T05:33:26;99574.72;;;16.27;75.19
38939;BME280;24211;49.980;19.776;2023-05-12T05:35:54;99571.94;;;16.44;73.65
38939;BME280;24211;49.980;19.776;2023-05-12T05:38:21;99569.91;;;16.56;72.21
38939;BME280;24211;49.980;19.776;2023-05-12T05:40:49;99571.09;;;16.70;71.09
38939;BME280;24211;49.980;19.776;2023-05-12T05:43:22;99570.34;;;16.79;69.62
38939;BME280;24211;49.980;19.776;2023-05-12T05:45:50;99569.88;;;16.87;69.77
38939;BME280;24211;49.980;19.776;2023-05-12T05:48:20;99575.69;;;17.11;68.47
38939;BME280;24211;49.980;19.776;2023-05-12T05:50:49;99576.84;;;17.25;67.96
38939;BME280;24211;49.980;19.776;2023-05-12T05:53:19;99576.97;;;17.45;67.19
38939;BME280;24211;49.980;19.776;2023-05-12T05:55:47;99578.44;;;17.63;65.54
38939;BME280;24211;49.980;19.776;2023-05-12T05:58:17;99572.56;;;17.81;62.61
38939;BME280;24211;49.980;19.776;2023-05-12T06:00:45;99576.91;;;17.92;62.23
38939;BME280;24211;49.980;19.776;2023-05-12T06:03:12;99565.06;;;18.08;60.99
38939;BME280;24211;49.980;19.776;2023-05-12T06:05:42;99575.38;;;18.21;61.00
38939;BME280;24211;49.980;19.776;2023-05-12T06:08:10;99567.81;;;18.44;60.48
38939;BME280;24211;49.980;19.776;2023-05-12T06:10:39;99565.69;;;18.56;60.07
38939;BME280;24211;49.980;19.776;2023-05-12T06:13:07;99570.56;;;18.69;59.11
38939;BME280;24211;49.980;19.776;2023-05-12T06:15:34;99572.72;;;18.87;58.43
38939;BME280;24211;49.980;19.776;2023-05-12T06:18:02;99561.09;;;18.97;57.77
38939;BME280;24211;49.980;19.776;2023-05-12T06:20:31;99572.16;;;19.10;57.06
38939;BME280;24211;49.980;19.776;2023-05-12T06:22:58;99566.44;;;19.22;57.02
38939;BME280;24211;49.980;19.776;2023-05-12T06:25:25;99569.97;;;19.12;55.79
38939;BME280;24211;49.980;19.776;2023-05-12T06:27:53;99571.56;;;19.33;56.50
38939;BME280;24211;49.980;19.776;2023-05-12T06:30:20;99568.56;;;19.45;55.25
38939;BME280;24211;49.980;19.776;2023-05-12T06:32:47;99573.19;;;19.44;55.27
38939;BME280;24211;49.980;19.776;2023-05-12T06:35:15;99563.59;;;19.72;55.46
38939;BME280;24211;49.980;19.776;2023-05-12T06:37:43;99563.78;;;19.86;55.35
38939;BME280;24211;49.980;19.776;2023-05-12T06:40:15;99562.13;;;19.95;53.94
38939;BME280;24211;49.980;19.776;2023-05-12T06:42:43;99571.50;;;20.12;53.29
38939;BME280;24211;49.980;19.776;2023-05-12T06:45:18;99564.22;;;20.03;53.27
38939;BME280;24211;49.980;19.776;2023-05-12T06:47:45;99568.22;;;20.15;52.78
38939;BME280;24211;49.980;19.776;2023-05-12T06:50:12;99567.47;;;20.05;52.74
38939;BME280;24211;49.980;19.776;2023-05-12T06:52:43;99567.88;;;20.32;53.22
38939;BME280;24211;49.980;19.776;2023-05-12T06:55:10;99566.75;;;20.38;51.23
38939;BME280;24211;49.980;19.776;2023-05-12T06:57:37;99566.06;;;20.61;51.64
38939;BME280;24211;49.980;19.776;2023-05-12T07:00:05;99559.91;;;20.79;50.99
38939;BME280;24211;49.980;19.776;2023-05-12T07:02:33;99574.56;;;20.83;51.07
38939;BME280;24211;49.980;19.776;2023-05-12T07:05:01;99566.75;;;21.06;49.97
38939;BME280;24211;49.980;19.776;2023-05-12T07:07:29;99566.94;;;20.85;50.09
38939;BME280;24211;49.980;19.776;2023-05-12T07:09:56;99561.97;;;20.93;49.60
38939;BME280;24211;49.980;19.776;2023-05-12T07:12:23;99558.84;;;21.04;49.83
38939;BME280;24211;49.980;19.776;2023-05-12T07:14:50;99557.16;;;21.13;50.07
38939;BME280;24211;49.980;19.776;2023-05-12T07:17:18;99561.16;;;21.21;50.32
38939;BME280;24211;49.980;19.776;2023-05-12T07:19:45;99564.06;;;21.29;49.02
38939;BME280;24211;49.980;19.776;2023-05-12T07:22:12;99572.03;;;21.68;48.12
38939;BME280;24211;49.980;19.776;2023-05-12T07:24:39;99559.34;;;21.82;47.14
38939;BME280;24211;49.980;19.776;2023-05-12T07:27:07;99560.19;;;21.59;48.38
38939;BME280;24211;49.980;19.776;2023-05-12T07:29:34;99549.63;;;21.76;48.54
38939;BME280;24211;49.980;19.776;2023-05-12T07:32:02;99555.28;;;22.03;48.60
38939;BME280;24211;49.980;19.776;2023-05-12T07:34:31;99567.97;;;21.89;47.95
38939;BME280;24211;49.980;19.776;2023-05-12T07:37:00;99559.41;;;21.77;47.83
38939;BME280;24211;49.980;19.776;2023-05-12T07:39:28;99559.03;;;21.89;48.53
38939;BME280;24211;49.980;19.776;2023-05-12T07:41:58;99564.47;;;22.07;48.27
38939;BME280;24211;49.980;19.776;2023-05-12T07:44:26;99554.84;;;22.15;47.81
38939;BME280;24211;49.980;19.776;2023-05-12T07:46:54;99560.28;;;21.96;47.69
38939;BME280;24211;49.980;19.776;2023-05-12T07:49:21;99551.78;;;22.54;47.42
38939;BME280;24211;49.980;19.776;2023-05-12T07:51:49;99550.97;;;22.72;48.20
38939;BME280;24211;49.980;19.776;2023-05-12T07:54:16;99544.84;;;22.80;47.09
38939;BME280;24211;49.980;19.776;2023-05-12T07:56:43;99548.06;;;23.14;46.11
38939;BME280;24211;49.980;19.776;2023-05-12T07:59:10;99537.75;;;23.25;44.58
38939;BME280;24211;49.980;19.776;2023-05-12T08:01:39;99543.84;;;23.35;45.25
38939;BME280;24211;49.980;19.776;2023-05-12T08:04:06;99540.59;;;23.33;45.26
38939;BME280;24211;49.980;19.776;2023-05-12T08:06:34;99540.81;;;23.51;43.97
38939;BME280;24211;49.980;19.776;2023-05-12T08:09:01;99533.72;;;23.77;43.85
38939;BME280;24211;49.980;19.776;2023-05-12T08:11:28;99548.03;;;23.96;43.95
38939;BME280;24211;49.980;19.776;2023-05-12T08:13:55;99530.00;;;24.22;42.23
38939;BME280;24211;49.980;19.776;2023-05-12T08:16:23;99532.03;;;24.17;41.17
38939;BME280;24211;49.980;19.776;2023-05-12T08:18:50;99531.13;;;24.43;41.21
38939;BME280;24211;49.980;19.776;2023-05-12T08:21:17;99534.66;;;24.08;41.51
38939;BME280;24211;49.980;19.776;2023-05-12T08:23:44;99531.69;;;23.69;42.13
38939;BME280;24211;49.980;19.776;2023-05-12T08:26:11;99525.03;;;23.34;42.00
38939;BME280;24211;49.980;19.776;2023-05-12T08:28:40;99526.94;;;23.88;41.64
38939;BME280;24211;49.980;19.776;2023-05-12T08:31:07;99533.28;;;23.97;42.44
38939;BME280;24211;49.980;19.776;2023-05-12T08:33:34;99528.50;;;24.38;40.98
38939;BME280;24211;49.980;19.776;2023-05-12T08:36:03;99526.63;;;24.25;40.90
38939;BME280;24211;49.980;19.776;2023-05-12T08:38:31;99530.34;;;24.07;41.72
38939;BME280;24211;49.980;19.776;2023-05-12T08:41:19;99529.19;;;24.44;40.65
38939;BME280;24211;49.980;19.776;2023-05-12T08:43:50;99523.84;;;25.14;38.98
38939;BME280;24211;49.980;19.776;2023-05-12T08:46:19;99520.59;;;25.03;39.28
38939;BME280;24211;49.980;19.776;2023-05-12T08:48:49;99522.72;;;24.62;40.22
38939;BME280;24211;49.980;19.776;2023-05-12T08:51:18;99523.81;;;25.05;40.33
38939;BME280;24211;49.980;19.776;2023-05-12T08:53:47;99517.94;;;24.90;39.45
38939;BME280;24211;49.980;19.776;2023-05-12T08:56:19;99523.91;;;25.70;39.59
38939;BME280;24211;49.980;19.776;2023-05-12T08:58:52;99515.88;;;25.91;39.38
38939;BME280;24211;49.980;19.776;2023-05-12T09:01:20;99514.59;;;24.70;38.57
38939;BME280;24211;49.980;19.776;2023-05-12T09:03:47;99516.59;;;24.79;38.95
38939;BME280;24211;49.980;19.776;2023-05-12T09:06:15;99520.41;;;25.39;37.49
38939;BME280;24211;49.980;19.776;2023-05-12T09:08:44;99524.75;;;25.79;36.61
38939;BME280;24211;49.980;19.776;2023-05-12T09:11:12;99513.72;;;25.45;36.93
38939;BME280;24211;49.980;19.776;2023-05-12T09:14:07;99518.94;;;25.72;37.43
38939;BME280;24211;49.980;19.776;2023-05-12T09:16:41;99521.66;;;25.72;34.83
38939;BME280;24211;49.980;19.776;2023-05-12T09:19:09;99510.94;;;26.19;35.21
38939;BME280;24211;49.980;19.776;2023-05-12T09:21:37;99515.31;;;26.11;35.47
38939;BME280;24211;49.980;19.776;2023-05-12T09:24:06;99514.41;;;25.76;35.17
38939;BME280;24211;49.980;19.776;2023-05-12T09:26:48;99508.91;;;25.59;35.78
38939;BME280;24211;49.980;19.776;2023-05-12T09:29:15;99513.38;;;26.12;35.10
38939;BME280;24211;49.980;19.776;2023-05-12T09:32:00;99505.75;;;26.77;33.94
38939;BME280;24211;49.980;19.776;2023-05-12T09:34:34;99503.59;;;26.91;33.37
38939;BME280;24211;49.980;19.776;2023-05-12T09:37:08;99516.22;;;25.89;33.76
38939;BME280;24211;49.980;19.776;2023-05-12T09:39:35;99513.19;;;26.51;32.81
38939;BME280;24211;49.980;19.776;2023-05-12T09:42:09;99493.25;;;26.97;32.81
38939;BME280;24211;49.980;19.776;2023-05-12T09:44:38;99502.34;;;27.27;33.27
38939;BME280;24211;49.980;19.776;2023-05-12T09:47:07;99502.94;;;27.41;32.64
38939;BME280;24211;49.980;19.776;2023-05-12T09:49:35;99508.31;;;26.65;31.40
38939;BME280;24211;49.980;19.776;2023-05-12T09:52:03;99502.84;;;26.65;31.62
38939;BME280;24211;49.980;19.776;2023-05-12T09:54:32;99510.25;;;25.96;32.63
38939;BME280;24211;49.980;19.776;2023-05-12T09:57:03;99506.41;;;26.06;31.91
38939;BME280;24211;49.980;19.776;2023-05-12T09:59:35;99511.16;;;25.57;32.30
38939;BME280;24211;49.980;19.776;2023-05-12T10:02:07;99512.81;;;25.92;31.90
38939;BME280;24211;49.980;19.776;2023-05-12T10:04:57;99508.19;;;26.02;30.98
38939;BME280;24211;49.980;19.776;2023-05-12T10:07:27;99497.38;;;26.39;30.12
38939;BME280;24211;49.980;19.776;2023-05-12T10:09:59;99508.78;;;26.67;30.58
38939;BME280;24211;49.980;19.776;2023-05-12T10:12:28;99504.94;;;26.59;30.76
38939;BME280;24211;49.980;19.776;2023-05-12T10:14:56;99508.19;;;26.44;29.86
38939;BME280;24211;49.980;19.776;2023-05-12T10:17:25;99497.41;;;25.40;30.49
38939;BME280;24211;49.980;19.776;2023-05-12T10:19:55;99513.66;;;26.02;29.13
38939;BME280;24211;49.980;19.776;2023-05-12T10:22:23;99500.28;;;26.43;27.98
38939;BME280;24211;49.980;19.776;2023-05-12T10:24:54;99495.88;;;26.85;28.41
38939;BME280;24211;49.980;19.776;2023-05-12T10:27:23;99496.03;;;26.71;27.91
38939;BME280;24211;49.980;19.776;2023-05-12T10:29:51;99496.63;;;27.02;28.72
38939;BME280;24211;49.980;19.776;2023-05-12T10:32:20;99493.09;;;26.93;29.43
38939;BME280;24211;49.980;19.776;2023-05-12T10:34:47;99504.97;;;27.14;29.25
38939;BME280;24211;49.980;19.776;2023-05-12T10:37:14;99500.72;;;26.79;29.48
38939;BME280;24211;49.980;19.776;2023-05-12T10:39:50;99504.66;;;26.35;29.32
38939;BME280;24211;49.980;19.776;2023-05-12T10:42:22;99496.13;;;26.11;29.42
38939;BME280;24211;49.980;19.776;2023-05-12T10:44:54;99492.09;;;26.26;29.28
38939;BME280;24211;49.980;19.776;2023-05-12T10:47:24;99494.00;;;26.42;29.83
38939;BME280;24211;49.980;19.776;2023-05-12T10:49:56;99490.22;;;26.90;29.39
38939;BME280;24211;49.980;19.776;2023-05-12T10:52:25;99494.06;;;26.97;28.81
38939;BME280;24211;49.980;19.776;2023-05-12T10:55:00;99484.19;;;27.43;29.29
38939;BME280;24211;49.980;19.776;2023-05-12T10:57:30;99495.25;;;26.79;27.96
38939;BME280;24211;49.980;19.776;2023-05-12T10:59:59;99489.53;;;27.01;28.76
38939;BME280;24211;49.980;19.776;2023-05-12T11:02:29;99493.84;;;27.49;28.38
38939;BME280;24211;49.980;19.776;2023-05-12T11:05:09;99492.47;;;27.25;28.61
38939;BME280;24211;49.980;19.776;2023-05-12T11:07:46;99492.69;;;25.88;29.43
38939;BME280;24211;49.980;19.776;2023-05-12T11:10:14;99493.84;;;25.40;29.58
38939;BME280;24211;49.980;19.776;2023-05-12T11:12:42;99501.97;;;25.14;29.76
38939;BME280;24211;49.980;19.776;2023-05-12T11:15:11;99494.31;;;26.07;30.25
38939;BME280;24211;49.980;19.776;2023-05-12T11:17:39;99498.00;;;25.76;29.40
38939;BME280;24211;49.980;19.776;2023-05-12T11:20:07;99495.25;;;25.28;30.00
38939;BME280;24211;49.980;19.776;2023-05-12T11:22:40;99502.22;;;26.00;30.28
38939;BME280;24211;49.980;19.776;2023-05-12T11:25:10;99493.03;;;25.39;31.35
38939;BME280;24211;49.980;19.776;2023-05-12T11:27:38;99489.84;;;24.98;30.38
38939;BME280;24211;49.980;19.776;2023-05-12T11:30:08;99490.25;;;24.38;31.36
38939;BME280;24211;49.980;19.776;2023-05-12T11:32:37;99499.56;;;25.12;30.42
38939;BME280;24211;49.980;19.776;2023-05-12T11:35:22;99496.75;;;25.34;28.66
38939;BME280;24211;49.980;19.776;2023-05-12T11:37:50;99499.63;;;24.90;29.25
38939;BME280;24211;49.980;19.776;2023-05-12T11:40:21;99496.81;;;24.82;29.88
38939;BME280;24211;49.980;19.776;2023-05-12T11:42:50;99502.88;;;25.40;29.78
38939;BME280;24211;49.980;19.776;2023-05-12T11:45:20;99490.94;;;25.27;29.42
38939;BME280;24211;49.980;19.776;2023-05-12T11:47:48;99497.78;;;25.56;28.60
38939;BME280;24211;49.980;19.776;2023-05-12T11:50:21;99495.22;;;24.81;27.89
38939;BME280;24211;49.980;19.776;2023-05-12T11:52:50;99489.97;;;25.32;28.48
38939;BME280;24211;49.980;19.776;2023-05-12T11:55:22;99492.66;;;25.15;28.12
38939;BME280;24211;49.980;19.776;2023-05-12T11:58:02;99493.03;;;25.39;28.30
38939;BME280;24211;49.980;19.776;2023-05-12T12:00:34;99494.91;;;25.13;28.48
38939;BME280;24211;49.980;19.776;2023-05-12T12:03:13;99479.34;;;25.30;28.69
38939;BME280;24211;49.980;19.776;2023-05-12T12:05:44;99487.75;;;24.73;27.98
38939;BME280;24211;49.980;19.776;2023-05-12T12:08:14;99482.25;;;24.95;29.58
38939;BME280;24211;49.980;19.776;2023-05-12T12:10:45;99486.16;;;24.49;30.14
38939;BME280;24211;49.980;19.776;2023-05-12T12:13:24;99487.66;;;24.78;30.86
38939;BME280;24211;49.980;19.776;2023-05-12T12:15:51;99491.88;;;24.84;31.26
38939;BME280;24211;49.980;19.776;2023-05-12T12:18:19;99493.44;;;24.10;31.51
38939;BME280;24211;49.980;19.776;2023-05-12T12:20:46;99483.69;;;24.17;32.26
38939;BME280;24211;49.980;19.776;2023-05-12T12:23:14;99490.31;;;25.00;32.10
38939;BME280;24211;49.980;19.776;2023-05-12T12:25:41;99482.72;;;23.86;31.58
38939;BME280;24211;49.980;19.776;2023-05-12T12:28:09;99495.28;;;23.87;31.75
38939;BME280;24211;49.980;19.776;2023-05-12T12:30:36;99497.94;;;23.65;32.08
38939;BME280;24211;49.980;19.776;2023-05-12T12:33:04;99483.19;;;24.37;31.76
38939;BME280;24211;49.980;19.776;2023-05-12T12:35:31;99488.78;;;24.10;31.67
38939;BME280;24211;49.980;19.776;2023-05-12T12:37:58;99492.31;;;24.33;31.49
38939;BME280;24211;49.980;19.776;2023-05-12T12:40:26;99486.84;;;24.33;29.89
38939;BME280;24211;49.980;19.776;2023-05-12T12:42:53;99495.72;;;24.38;31.20
38939;BME280;24211;49.980;19.776;2023-05-12T12:45:20;99490.19;;;23.94;31.25
38939;BME280;24211;49.980;19.776;2023-05-12T12:47:51;99490.78;;;23.55;31.41
38939;BME280;24211;49.980;19.776;2023-05-12T12:50:20;99492.13;;;24.29;32.23
38939;BME280;24211;49.980;19.776;2023-05-12T12:52:48;99494.75;;;23.35;34.12
38939;BME280;24211;49.980;19.776;2023-05-12T12:55:16;99492.09;;;23.58;34.38
38939;BME280;24211;49.980;19.776;2023-05-12T12:57:43;99491.28;;;23.16;34.21